Time;durP1;ratioP1;P1;durP2;ratioP2;P2;SDS_P1;SDS_P2;PMS_P1;PMS_P2;Temp;Humidity;BMP_temperature;BMP_pressure;BME280_temperature;BME280_humidity;BME280_pressure;Samples;Min_cycle;Max_cycle;Signal;HPM_P1;HPM_P2
2022/12/19 00:00:29;;;;;;;38.13;20.23;;;0.00;99.90;;;;;;6125782;23;20064;-87
2022/12/19 00:03:13;;;;;;;39.90;20.63;;;0.70;99.90;;;;;;6094982;23;20030;-87
2022/12/19 00:05:54;;;;;;;41.37;21.30;;;0.10;99.90;;;;;;6096715;23;20022;-86
2022/12/19 00:08:20;;;;;;;39.53;21.13;;;-0.40;99.90;;;;;;6095494;23;20022;-87
2022/12/19 00:11:00;;;;;;;41.93;21.60;;;0.00;99.90;;;;;;6096962;23;20014;-87
2022/12/19 00:13:27;;;;;;;39.63;20.03;;;-0.40;99.90;;;;;;6093980;23;20089;-87
2022/12/19 00:16:19;;;;;;;43.20;22.90;;;-0.30;99.90;;;;;;6097156;23;20050;-87
2022/12/19 00:18:52;;;;;;;39.10;21.10;;;-0.10;99.90;;;;;;6096622;23;20347;-87
2022/12/19 00:21:35;;;;;;;40.35;20.92;;;0.60;99.90;;;;;;6095671;23;20017;-87
2022/12/19 00:24:02;;;;;;;41.10;19.67;;;0.20;99.90;;;;;;6095502;23;20065;-87
2022/12/19 00:26:43;;;;;;;41.40;21.50;;;-0.30;99.90;;;;;;6094326;23;20025;-87
2022/12/19 00:29:09;;;;;;;38.27;21.30;;;0.40;99.90;;;;;;6104514;23;20022;-88
2022/12/19 00:31:44;;;;;;;38.90;20.90;;;0.70;99.90;;;;;;6098591;23;20025;-87
2022/12/19 00:34:19;;;;;;;39.67;20.97;;;0.00;99.90;;;;;;6093530;23;20022;-87
2022/12/19 00:37:00;;;;;;;40.60;21.47;;;0.60;99.90;;;;;;6096933;23;20015;-87
2022/12/19 00:39:25;;;;;;;38.73;19.97;;;0.40;99.90;;;;;;6095349;23;20022;-87
2022/12/19 00:41:53;;;;;;;40.20;21.93;;;1.00;99.90;;;;;;6095919;23;20010;-87
2022/12/19 00:44:40;;;;;;;40.03;20.87;;;0.30;99.90;;;;;;6096547;23;20050;-87
2022/12/19 00:47:21;;;;;;;43.10;21.40;;;0.30;99.90;;;;;;6095354;23;20023;-87
2022/12/19 00:50:05;;;;;;;41.33;20.83;;;-0.60;99.90;;;;;;6091022;23;20037;-87
2022/12/19 00:52:31;;;;;;;38.88;20.88;;;0.20;99.90;;;;;;6094653;23;20065;-87
2022/12/19 00:55:06;;;;;;;39.77;20.87;;;-0.20;99.90;;;;;;6094252;23;20802;-87
2022/12/19 00:57:47;;;;;;;40.83;20.80;;;0.20;99.90;;;;;;6094740;23;20014;-87
2022/12/19 01:00:33;;;;;;;42.00;21.03;;;0.60;99.90;;;;;;6096965;23;20010;-87
2022/12/19 01:03:18;;;;;;;39.40;21.13;;;1.00;99.90;;;;;;6108416;23;20053;-88
2022/12/19 01:05:43;;;;;;;40.83;21.37;;;0.10;99.90;;;;;;6103774;23;20026;-87
2022/12/19 01:08:26;;;;;;;40.43;21.40;;;-0.10;99.90;;;;;;6129618;23;20331;-87
2022/12/19 01:10:52;;;;;;;41.60;20.93;;;0.90;99.90;;;;;;6103477;23;20022;-87
2022/12/19 01:13:29;;;;;;;41.50;21.30;;;0.00;99.90;;;;;;6100548;23;20018;-87
2022/12/19 01:15:55;;;;;;;42.57;21.47;;;0.50;99.90;;;;;;6130696;23;20319;-88
2022/12/19 01:18:30;;;;;;;40.53;20.73;;;-0.10;99.90;;;;;;6098845;23;20018;-87
2022/12/19 01:21:01;;;;;;;41.80;21.17;;;0.60;99.90;;;;;;6099682;23;20730;-87
2022/12/19 01:23:41;;;;;;;39.90;19.77;;;1.10;99.90;;;;;;6098519;23;20065;-87
2022/12/19 01:26:07;;;;;;;41.30;20.90;;;0.60;99.90;;;;;;6099832;23;20014;-87
2022/12/19 01:28:36;;;;;;;41.70;21.10;;;-0.40;99.90;;;;;;6099534;23;20339;-87
2022/12/19 01:31:26;;;;;;;41.50;22.07;;;0.10;99.90;;;;;;6098397;23;20021;-87
2022/12/19 01:33:52;;;;;;;41.43;21.17;;;1.20;99.90;;;;;;6100714;23;20438;-87
2022/12/19 01:36:21;;;;;;;43.87;21.87;;;-1.00;99.90;;;;;;6099175;23;20025;-87
2022/12/19 01:38:50;;;;;;;40.10;20.60;;;0.50;99.90;;;;;;6129567;23;20020;-87
2022/12/19 01:41:15;;;;;;;44.33;21.77;;;0.40;99.90;;;;;;6099703;23;20368;-87
2022/12/19 01:44:38;;;;;;;42.10;20.77;;;0.20;99.90;;;;;;6099469;23;20029;-87
2022/12/19 01:47:12;;;;;;;39.20;20.33;;;0.60;99.90;;;;;;6006185;23;20024;-87
2022/12/19 01:49:47;;;;;;;45.23;20.67;;;1.00;99.90;;;;;;5986487;23;20024;-87
2022/12/19 01:52:28;;;;;;;42.43;21.03;;;0.10;99.90;;;;;;5980180;23;20087;-87
2022/12/19 01:56:00;;;;;;;42.80;21.30;;;1.50;99.90;;;;;;6025074;23;20072;-87
2022/12/19 01:59:34;;;;;;;45.20;20.67;;;1.40;99.90;;;;;;6155239;23;20026;-87
2022/12/19 02:02:51;;;;;;;39.53;20.37;;;0.30;99.90;;;;;;6130681;23;20044;-88
2022/12/19 02:05:16;;;;;;;39.73;19.67;;;0.90;99.90;;;;;;6155511;23;20028;-87
2022/12/19 02:07:43;;;;;;;45.93;22.30;;;0.50;99.90;;;;;;6157010;23;20346;-87
2022/12/19 02:10:23;;;;;;;42.47;21.23;;;0.40;99.90;;;;;;6152504;23;20522;-87
2022/12/19 02:13:08;;;;;;;42.73;22.07;;;0.40;99.90;;;;;;6140807;23;20017;-87
2022/12/19 02:16:29;;;;;;;45.27;21.40;;;1.90;99.90;;;;;;6131043;23;20022;-87
2022/12/19 02:19:22;;;;;;;45.27;21.70;;;0.10;99.90;;;;;;6037984;23;20071;-87
2022/12/19 02:22:39;;;;;;;43.53;20.80;;;0.30;99.90;;;;;;6037971;23;20088;-87
2022/12/19 02:25:38;;;;;;;42.63;21.27;;;0.60;99.90;;;;;;6037102;23;20460;-87
2022/12/19 02:29:02;;;;;;;41.50;21.80;;;1.70;99.90;;;;;;6010977;23;20531;-88
2022/12/19 02:35:25;;;;;;;44.27;21.20;;;0.60;99.90;;;;;;6012623;23;20030;-87
2022/12/19 02:38:12;;;;;;;43.97;21.43;;;0.70;99.90;;;;;;6013988;23;20330;-87
2022/12/19 02:41:02;;;;;;;47.57;21.27;;;1.40;99.90;;;;;;6037198;23;20338;-87
2022/12/19 02:43:41;;;;;;;47.53;22.40;;;0.80;99.90;;;;;;6037970;23;20143;-87
2022/12/19 02:46:08;;;;;;;49.87;23.53;;;0.70;99.90;;;;;;6044074;23;20027;-88
2022/12/19 02:48:43;;;;;;;48.70;22.80;;;0.40;99.90;;;;;;6041967;23;20019;-87
2022/12/19 02:51:15;;;;;;;48.20;22.40;;;2.30;99.90;;;;;;6162861;23;20020;-88
2022/12/19 02:53:56;;;;;;;55.03;23.93;;;0.40;99.90;;;;;;6125904;23;20039;-88
2022/12/19 02:56:34;;;;;;;51.37;22.77;;;0.20;99.90;;;;;;6159007;23;20070;-88
2022/12/19 02:59:25;;;;;;;52.97;24.20;;;1.30;99.90;;;;;;6131215;23;20057;-88
2022/12/19 03:02:28;;;;;;;54.83;23.13;;;0.70;99.90;;;;;;6130455;23;20047;-88
2022/12/19 03:05:19;;;;;;;54.40;24.07;;;0.70;99.90;;;;;;6109472;23;20049;-88
2022/12/19 03:08:08;;;;;;;62.83;25.27;;;1.00;99.90;;;;;;6112715;23;20018;-87
2022/12/19 03:11:25;;;;;;;69.73;26.50;;;0.70;99.90;;;;;;6096917;23;20033;-88
2022/12/19 03:14:42;;;;;;;63.87;26.10;;;0.20;99.90;;;;;;6097686;23;20026;-88
2022/12/19 03:23:54;;;;;;;66.03;26.47;;;1.50;99.90;;;;;;6106938;23;20025;-87
2022/12/19 03:26:36;;;;;;;72.67;28.30;;;0.50;99.90;;;;;;6100014;23;20014;-88
2022/12/19 03:29:24;;;;;;;66.63;28.27;;;0.60;99.90;;;;;;6065547;23;20455;-88
2022/12/19 03:32:02;;;;;;;76.00;30.57;;;1.30;99.90;;;;;;6065195;23;20047;-88
2022/12/19 03:34:50;;;;;;;77.27;29.80;;;2.60;99.90;;;;;;6066137;23;20019;-88
2022/12/19 03:37:36;;;;;;;75.77;29.80;;;0.50;99.90;;;;;;6065187;23;20459;-88
2022/12/19 03:40:22;;;;;;;75.80;29.10;;;0.90;99.90;;;;;;6042267;23;20431;-88
2022/12/19 03:43:08;;;;;;;83.80;30.43;;;0.80;99.90;;;;;;6042000;23;20030;-88
2022/12/19 03:45:53;;;;;;;79.87;29.43;;;0.50;99.90;;;;;;6065078;23;20034;-88
2022/12/19 03:51:45;;;;;;;80.47;29.40;;;0.80;99.90;;;;;;6124898;23;20093;-88
2022/12/19 03:54:44;;;;;;;84.50;29.77;;;1.10;99.90;;;;;;6099989;23;20068;-88
2022/12/19 03:57:44;;;;;;;88.67;31.20;;;0.60;99.90;;;;;;6132028;23;20387;-88
2022/12/19 04:00:19;;;;;;;88.63;31.37;;;2.00;99.90;;;;;;6100895;23;20053;-89
2022/12/19 04:02:52;;;;;;;81.27;28.60;;;1.20;99.90;;;;;;6127054;23;20450;-88
2022/12/19 04:05:22;;;;;;;85.50;30.43;;;1.40;99.90;;;;;;6099418;23;20152;-89
2022/12/19 04:07:48;;;;;;;83.33;29.53;;;2.90;99.90;;;;;;6100293;23;20022;-88
2022/12/19 04:10:21;;;;;;;88.77;29.83;;;1.70;99.90;;;;;;6100434;23;20072;-88
2022/12/19 04:12:57;;;;;;;82.67;30.80;;;2.10;99.90;;;;;;6125645;23;20018;-88
2022/12/19 04:16:00;;;;;;;80.83;28.70;;;1.20;99.90;;;;;;6100191;23;20010;-88
2022/12/19 04:18:37;;;;;;;82.83;29.80;;;1.60;99.90;;;;;;6093870;23;20029;-88
2022/12/19 04:21:30;;;;;;;84.67;30.40;;;1.20;99.90;;;;;;6103698;23;20021;-88
2022/12/19 04:24:36;;;;;;;80.00;29.70;;;1.00;99.90;;;;;;6127112;23;20093;-89
2022/12/19 04:27:22;;;;;;;82.63;30.90;;;1.40;99.90;;;;;;6130092;23;20018;-89
2022/12/19 04:30:12;;;;;;;91.43;31.73;;;3.10;99.90;;;;;;6129261;23;20021;-88
2022/12/19 04:32:56;;;;;;;83.13;29.57;;;2.30;99.90;;;;;;6110369;23;20026;-88
2022/12/19 04:35:25;;;;;;;70.60;30.10;;;1.10;99.90;;;;;;6126793;23;20022;-89
2022/12/19 04:38:00;;;;;;;85.37;30.33;;;1.30;99.90;;;;;;6126549;23;20014;-86
2022/12/19 04:40:34;;;;;;;83.53;30.90;;;1.80;99.90;;;;;;6099573;23;20044;-87
2022/12/19 04:43:12;;;;;;;;;;;3.40;99.90;;;;;;6128991;23;20312;-87
2022/12/19 04:45:43;;;;;;;84.00;29.37;;;1.00;99.90;;;;;;6127112;23;20095;-87
2022/12/19 04:48:16;;;;;;;79.40;29.57;;;1.60;99.90;;;;;;6125347;23;20509;-87
2022/12/19 04:54:23;;;;;;;90.67;31.53;;;2.20;99.90;;;;;;6098277;23;20061;-87
2022/12/19 04:56:58;;;;;;;86.53;31.27;;;3.80;99.90;;;;;;6126153;23;20018;-88
2022/12/19 04:59:32;;;;;;;81.53;30.70;;;1.60;99.90;;;;;;6100135;23;20060;-87
2022/12/19 05:02:02;;;;;;;77.10;30.37;;;2.40;99.90;;;;;;6099675;23;20026;-87
2022/12/19 05:04:34;;;;;;;86.23;30.37;;;2.90;99.90;;;;;;6049611;23;20022;-87
2022/12/19 05:07:02;;;;;;;83.70;30.10;;;2.10;99.90;;;;;;6105457;23;20026;-88
2022/12/19 05:09:37;;;;;;;82.73;30.60;;;2.70;99.90;;;;;;6110170;23;20520;-88
2022/12/19 05:12:21;;;;;;;77.40;30.27;;;3.00;99.90;;;;;;6125001;23;20029;-87
2022/12/19 05:14:46;;;;;;;76.57;29.13;;;1.80;99.90;;;;;;6094265;23;20014;-87
2022/12/19 05:17:20;;;;;;;73.63;29.90;;;3.10;99.90;;;;;;6075972;23;20340;-87
2022/12/19 05:20:49;;;;;;;81.20;30.30;;;2.20;99.90;;;;;;6060022;23;20034;-87
2022/12/19 05:24:20;;;;;;;90.33;31.60;;;1.70;99.90;;;;;;6097296;23;20029;-87
2022/12/19 05:26:51;;;;;;;91.43;31.30;;;1.70;99.90;;;;;;6096621;23;20503;-87
2022/12/19 05:29:23;;;;;;;94.17;31.50;;;1.90;99.90;;;;;;6095612;23;20084;-87
2022/12/19 05:32:01;;;;;;;78.70;30.00;;;2.60;99.90;;;;;;6096989;23;20473;-87
2022/12/19 05:34:26;;;;;;;92.87;32.60;;;2.00;99.90;;;;;;6075593;23;20121;-87
2022/12/19 05:36:57;;;;;;;97.30;32.70;;;2.40;99.90;;;;;;6097181;23;20110;-87
2022/12/19 05:41:54;;;;;;;86.80;32.37;;;2.40;99.90;;;;;;6135839;23;20026;-87
2022/12/19 05:44:23;;;;;;;88.83;33.33;;;2.50;99.90;;;;;;6134142;23;20455;-87
2022/12/19 05:46:55;;;;;;;84.70;31.73;;;2.70;99.90;;;;;;6128082;23;20025;-87
2022/12/19 05:49:26;;;;;;;86.20;32.70;;;2.60;99.90;;;;;;6130366;23;20018;-86
2022/12/19 05:51:55;;;;;;;82.27;31.53;;;1.70;99.90;;;;;;6132678;23;20022;-87
2022/12/19 05:54:33;;;;;;;87.27;32.77;;;2.70;99.90;;;;;;6151324;23;20029;-88
2022/12/19 05:56:59;;;;;;;102.57;35.27;;;4.10;99.90;;;;;;6131886;23;20045;-86
2022/12/19 05:59:25;;;;;;;100.73;33.63;;;3.40;99.90;;;;;;6130528;23;20029;-87
2022/12/19 06:01:52;;;;;;;89.57;32.93;;;2.90;99.90;;;;;;6123540;23;20006;-87
2022/12/19 06:04:27;;;;;;;91.43;33.77;;;3.20;99.90;;;;;;6128852;23;20068;-87
2022/12/19 06:06:56;;;;;;;92.43;33.83;;;2.40;99.90;;;;;;6127721;23;20041;-87
2022/12/19 06:09:22;;;;;;;102.17;35.30;;;2.70;99.90;;;;;;6128858;23;20010;-88
2022/12/19 06:11:53;;;;;;;91.90;33.90;;;2.70;99.90;;;;;;6126811;23;20097;-87
2022/12/19 06:14:25;;;;;;;94.10;32.87;;;3.90;99.90;;;;;;6125755;23;20010;-87
2022/12/19 06:16:57;;;;;;;93.13;33.03;;;4.00;99.90;;;;;;6132086;23;20018;-88
2022/12/19 06:19:26;;;;;;;102.17;33.47;;;3.00;99.90;;;;;;6132196;23;20014;-88
2022/12/19 06:22:01;;;;;;;88.17;32.40;;;4.20;99.90;;;;;;6125765;23;20018;-87
2022/12/19 06:24:26;;;;;;;96.53;32.17;;;2.70;99.90;;;;;;6127076;23;20022;-88
2022/12/19 06:26:58;;;;;;;79.83;30.57;;;3.20;99.90;;;;;;6124868;23;20073;-87
2022/12/19 06:29:33;;;;;;;76.40;30.90;;;3.00;99.90;;;;;;6124984;23;20018;-88
2022/12/19 06:32:02;;;;;;;69.90;28.57;;;3.10;99.90;;;;;;6125483;23;20018;-87
2022/12/19 06:34:33;;;;;;;81.07;31.70;;;3.10;99.90;;;;;;6128294;23;20014;-87
2022/12/19 06:37:04;;;;;;;80.63;31.27;;;4.20;99.90;;;;;;6127630;23;20050;-87
2022/12/19 06:39:36;;;;;;;79.13;31.17;;;4.40;99.90;;;;;;6125690;23;20021;-87
2022/12/19 06:45:13;;;;;;;71.63;28.70;;;;;;;;;;6126856;23;20051;-88
2022/12/19 06:51:38;;;;;;;81.90;31.70;;;3.60;99.90;;;;;;6098902;23;20051;-86
2022/12/19 06:54:32;;;;;;;68.40;28.77;;;2.40;99.90;;;;;;6101637;23;20261;-87
2022/12/19 06:57:04;;;;;;;70.93;29.05;;;3.60;99.90;;;;;;6095187;23;20026;-87
2022/12/19 06:59:36;;;;;;;78.20;30.40;;;2.90;99.90;;;;;;6095771;23;20027;-88
2022/12/19 07:02:27;;;;;;;67.00;28.43;;;3.30;99.90;;;;;;6096826;23;20309;-88
2022/12/19 07:05:05;;;;;;;74.30;29.77;;;3.90;99.90;;;;;;6097928;23;20022;-87
2022/12/19 07:07:32;;;;;;;77.97;31.40;;;3.90;99.90;;;;;;6095485;23;20018;-86
2022/12/19 07:09:58;;;;;;;70.27;30.20;;;3.70;99.90;;;;;;6096494;23;20473;-87
2022/12/19 07:12:48;;;;;;;77.33;30.80;;;3.70;99.90;;;;;;6096757;23;20014;-87
2022/12/19 07:15:36;;;;;;;75.00;30.27;;;4.10;99.90;;;;;;6096058;23;20053;-88
2022/12/19 07:18:25;;;;;;;79.40;31.13;;;4.20;99.90;;;;;;6097701;23;20019;-88
2022/12/19 07:20:54;;;;;;;66.17;29.17;;;3.60;99.90;;;;;;6097290;23;20022;-82
2022/12/19 07:23:25;;;;;;;79.57;31.27;;;4.30;99.90;;;;;;6092338;23;20347;-82
2022/12/19 07:26:00;;;;;;;71.77;30.67;;;4.40;99.90;;;;;;6090111;23;20027;-83
2022/12/19 07:28:26;;;;;;;72.43;30.30;;;3.80;99.90;;;;;;6068706;23;20084;-82
2022/12/19 07:30:55;;;;;;;64.43;27.07;;;5.40;99.90;;;;;;6088097;23;20023;-82
2022/12/19 07:33:24;;;;;;;73.63;28.60;;;4.40;99.90;;;;;;6096394;23;20351;-82
2022/12/19 07:36:05;;;;;;;68.13;27.57;;;3.90;99.90;;;;;;6093877;23;20019;-82
2022/12/19 07:38:44;;;;;;;66.30;28.23;;;4.60;99.90;;;;;;6095974;23;20078;-81
2022/12/19 07:41:10;;;;;;;67.80;29.33;;;4.60;99.90;;;;;;6096301;23;20309;-81
2022/12/19 07:43:50;;;;;;;68.60;27.27;;;5.60;99.90;;;;;;6093437;23;20023;-82
2022/12/19 07:46:22;;;;;;;64.67;27.00;;;4.30;99.90;;;;;;6095755;23;20074;-82
2022/12/19 07:48:53;;;;;;;60.07;26.50;;;4.10;99.90;;;;;;6095663;23;20462;-82
2022/12/19 07:51:28;;;;;;;57.67;25.53;;;4.40;99.90;;;;;;6095405;23;20093;-82
2022/12/19 07:54:06;;;;;;;58.07;24.77;;;4.20;99.90;;;;;;6094590;23;20019;-82
2022/12/19 07:56:45;;;;;;;57.30;24.33;;;4.50;99.90;;;;;;6094186;23;20100;-81
2022/12/19 07:59:19;;;;;;;53.07;24.23;;;6.10;99.90;;;;;;6095261;23;20146;-82
2022/12/19 08:01:45;;;;;;;50.90;23.00;;;4.30;99.90;;;;;;6096933;23;20119;-82
2022/12/19 08:04:17;;;;;;;56.77;25.40;;;4.80;99.90;;;;;;6094994;23;20023;-82
2022/12/19 08:06:57;;;;;;;52.53;22.87;;;5.30;99.90;;;;;;6096925;23;20097;-82
2022/12/19 08:09:26;;;;;;;66.03;26.33;;;4.30;99.90;;;;;;6094364;23;20558;-82
2022/12/19 08:12:01;;;;;;;64.23;28.93;;;4.70;99.90;;;;;;6092991;23;20018;-82
2022/12/19 08:14:27;;;;;;;60.77;26.07;;;5.40;99.90;;;;;;6095778;23;20014;-83
2022/12/19 08:16:52;;;;;;;62.43;25.73;;;6.30;99.90;;;;;;6095913;23;20654;-83
2022/12/19 08:19:41;;;;;;;64.07;27.17;;;4.40;99.90;;;;;;6094538;23;20018;-82
2022/12/19 08:22:30;;;;;;;55.50;24.43;;;4.90;99.90;;;;;;6095525;23;20027;-83
2022/12/19 08:25:02;;;;;;;48.93;22.83;;;6.20;99.90;;;;;;6097924;23;20026;-82
2022/12/19 08:27:28;;;;;;;60.37;25.63;;;4.80;99.90;;;;;;6094074;23;20759;-82
2022/12/19 08:30:04;;;;;;;49.00;23.13;;;6.10;99.90;;;;;;6095911;23;20352;-83
2022/12/19 08:32:43;;;;;;;52.97;24.20;;;4.90;99.90;;;;;;6095817;23;20089;-83
2022/12/19 08:35:09;;;;;;;51.00;22.47;;;6.20;99.90;;;;;;6096479;23;20436;-83
2022/12/19 08:37:38;;;;;;;47.17;22.87;;;6.60;99.90;;;;;;6094145;23;20122;-83
2022/12/19 08:40:07;;;;;;;56.17;23.90;;;5.10;99.90;;;;;;6093318;23;20102;-83
2022/12/19 08:42:54;;;;;;;49.20;22.47;;;5.10;99.90;;;;;;6096115;23;20029;-83
2022/12/19 08:45:26;;;;;;;51.90;23.47;;;5.40;99.90;;;;;;6096214;23;20439;-83
2022/12/19 08:48:01;;;;;;;47.57;22.00;;;5.10;99.90;;;;;;6087150;23;20085;-82
2022/12/19 08:50:50;;;;;;;54.13;24.47;;;4.90;99.90;;;;;;6094130;23;20015;-82
2022/12/19 08:53:27;;;;;;;53.00;23.27;;;5.20;99.90;;;;;;6093421;23;20026;-82
2022/12/19 08:56:26;;;;;;;60.13;25.27;;;6.90;99.90;;;;;;6096346;23;20074;-81
2022/12/19 08:59:06;;;;;;;49.73;23.40;;;5.20;99.90;;;;;;6006986;23;20091;-81
2022/12/19 09:01:32;;;;;;;56.87;24.87;;;5.50;99.90;;;;;;6004541;23;20020;-80
2022/12/19 09:04:10;;;;;;;49.90;22.30;;;4.90;99.90;;;;;;6006075;23;20106;-80
2022/12/19 09:06:35;;;;;;;53.87;24.27;;;5.00;99.90;;;;;;6008110;23;20026;-80
2022/12/19 09:09:07;;;;;;;48.67;23.53;;;5.20;99.90;;;;;;5983592;23;20349;-81
2022/12/19 09:11:33;;;;;;;56.30;25.07;;;6.20;99.90;;;;;;6007810;23;20020;-81
2022/12/19 09:13:58;;;;;;;52.40;24.37;;;5.20;99.90;;;;;;5994201;23;20058;-82
2022/12/19 09:16:26;;;;;;;54.23;27.23;;;5.40;99.90;;;;;;6094537;23;20077;-80
2022/12/19 09:18:55;;;;;;;45.03;23.33;;;5.40;99.90;;;;;;6096529;23;20018;-81
2022/12/19 09:21:22;;;;;;;58.40;26.43;;;5.60;99.90;;;;;;6093213;23;20089;-82
2022/12/19 09:23:53;;;;;;;53.10;25.33;;;5.60;99.90;;;;;;6095177;23;20030;-81
2022/12/19 09:26:20;;;;;;;53.40;24.93;;;5.70;99.90;;;;;;6094735;23;20347;-82
2022/12/19 09:28:47;;;;;;;50.60;23.87;;;5.60;99.90;;;;;;6095524;23;20443;-83
2022/12/19 09:31:21;;;;;;;52.47;26.27;;;5.60;99.90;;;;;;6096003;23;20018;-83
2022/12/19 09:33:47;;;;;;;49.67;23.97;;;5.60;99.90;;;;;;6094742;23;20018;-82
2022/12/19 09:36:16;;;;;;;50.63;23.83;;;5.70;99.90;;;;;;6095502;23;20077;-82
2022/12/19 09:38:42;;;;;;;47.33;23.77;;;5.80;99.90;;;;;;6092518;23;20018;-80
2022/12/19 09:41:29;;;;;;;51.83;24.57;;;5.80;99.90;;;;;;6093750;23;20022;-80
2022/12/19 09:44:07;;;;;;;49.53;22.77;;;5.80;99.90;;;;;;6092582;23;20104;-81
2022/12/19 09:46:49;;;;;;;46.90;22.43;;;5.90;99.90;;;;;;6093237;23;20022;-81
2022/12/19 09:49:19;;;;;;;42.70;22.47;;;5.90;99.90;;;;;;6089268;23;20025;-82
2022/12/19 09:51:55;;;;;;;44.10;22.13;;;5.90;99.90;;;;;;6092904;23;20018;-81
2022/12/19 09:54:47;;;;;;;43.47;20.67;;;6.00;99.90;;;;;;6093400;23;20343;-81
2022/12/19 09:57:19;;;;;;;42.30;20.80;;;6.50;99.90;;;;;;6094915;23;20443;-83
2022/12/19 09:59:52;;;;;;;37.40;20.60;;;5.90;99.90;;;;;;6096553;23;20021;-83
2022/12/19 10:02:43;;;;;;;44.92;23.05;;;5.90;99.90;;;;;;6095752;23;20036;-83
2022/12/19 10:05:23;;;;;;;37.33;20.83;;;6.00;99.90;;;;;;6095021;23;20026;-83
2022/12/19 10:07:49;;;;;;;43.00;21.50;;;6.10;99.90;;;;;;6097431;23;20006;-82
2022/12/19 10:10:30;;;;;;;37.40;20.17;;;6.20;99.90;;;;;;6095783;23;20019;-83
2022/12/19 10:13:23;;;;;;;38.00;20.77;;;6.10;99.90;;;;;;6089742;23;20025;-82
2022/12/19 10:19:21;;;;;;;38.23;20.20;;;6.10;99.90;;;;;;6131501;23;20029;-82
2022/12/19 10:22:20;;;;;;;38.13;21.10;;;6.30;99.90;;;;;;6136930;23;20022;-82
2022/12/19 10:25:29;;;;;;;38.90;20.77;;;6.30;99.90;;;;;;6126734;23;20379;-83
2022/12/19 10:28:06;;;;;;;36.13;19.13;;;6.30;99.90;;;;;;6076530;23;20343;-81
2022/12/19 10:30:37;;;;;;;35.23;19.47;;;6.30;99.90;;;;;;6125076;23;20029;-82
2022/12/19 10:33:31;;;;;;;33.43;18.80;;;6.30;99.90;;;;;;6100060;23;20093;-82
2022/12/19 10:35:59;;;;;;;35.90;19.40;;;6.40;99.90;;;;;;6101309;23;20024;-82
2022/12/19 10:38:39;;;;;;;34.50;19.67;;;6.30;99.90;;;;;;6126296;23;20026;-82
2022/12/19 10:41:17;;;;;;;32.13;19.30;;;6.40;99.90;;;;;;6101388;23;20018;-83
2022/12/19 10:44:05;;;;;;;31.57;17.07;;;6.40;99.90;;;;;;6125550;23;20018;-83
2022/12/19 10:46:41;;;;;;;30.00;16.00;;;6.40;99.90;;;;;;6099838;23;20088;-83
2022/12/19 10:49:20;;;;;;;35.20;17.87;;;7.70;99.90;;;;;;6127593;23;20014;-83
2022/12/19 10:51:57;;;;;;;37.13;20.40;;;6.40;99.90;;;;;;6100864;23;20092;-81
2022/12/19 10:54:24;;;;;;;33.13;17.73;;;6.40;99.90;;;;;;6127657;23;20435;-84
2022/12/19 10:56:50;;;;;;;29.90;16.60;;;6.40;99.90;;;;;;6126689;23;20073;-84
2022/12/19 10:59:20;;;;;;;27.27;15.43;;;7.60;99.90;;;;;;6126648;23;20446;-83
2022/12/19 11:01:47;;;;;;;35.83;19.37;;;6.50;99.90;;;;;;6126146;23;20363;-80
2022/12/19 11:04:25;;;;;;;32.10;16.90;;;7.60;99.90;;;;;;6100484;23;20044;-81
2022/12/19 11:07:03;;;;;;;32.03;17.60;;;6.50;99.90;;;;;;6099639;23;20014;-84
2022/12/19 11:09:42;;;;;;;32.07;17.83;;;6.60;99.90;;;;;;6119522;23;20081;-81
2022/12/19 11:12:10;;;;;;;32.43;16.90;;;6.60;99.90;;;;;;6126484;23;20013;-80
2022/12/19 11:14:42;;;;;;;33.50;17.30;;;7.60;99.90;;;;;;6125477;23;20017;-79
2022/12/19 11:17:37;;;;;;;29.23;15.87;;;6.60;99.90;;;;;;6099952;23;20057;-80
2022/12/19 11:20:22;;;;;;;27.13;16.07;;;7.50;99.90;;;;;;6104971;23;20048;-80
2022/12/19 11:22:59;;;;;;;30.23;16.17;;;6.60;99.90;;;;;;6099424;23;20025;-81
2022/12/19 11:25:42;;;;;;;31.90;16.67;;;6.60;99.90;;;;;;6100432;23;20059;-81
2022/12/19 11:28:37;;;;;;;28.00;15.93;;;6.60;99.90;;;;;;6099700;23;20065;-81
2022/12/19 11:31:29;;;;;;;31.33;16.13;;;6.60;99.90;;;;;;6107041;23;20018;-81
2022/12/19 11:34:03;;;;;;;29.63;16.13;;;6.60;99.90;;;;;;6099126;23;20021;-81
2022/12/19 11:36:40;;;;;;;;;;;7.50;99.90;;;;;;6099709;23;20017;-80
2022/12/19 11:39:15;;;;;;;27.63;15.80;;;6.80;99.90;;;;;;6126031;23;19947;-80
2022/12/19 11:41:48;;;;;;;32.83;17.83;;;6.70;99.90;;;;;;6126684;23;20010;-80
2022/12/19 11:44:31;;;;;;;30.77;16.73;;;6.70;99.90;;;;;;6125143;23;20022;-82
2022/12/19 11:47:28;;;;;;;30.50;16.87;;;6.70;99.90;;;;;;6100253;23;20018;-81
2022/12/19 11:50:01;;;;;;;28.03;16.07;;;6.70;99.90;;;;;;6098874;23;20018;-81
2022/12/19 11:53:04;;;;;;;28.63;15.80;;;6.70;99.90;;;;;;6099451;23;20018;-81
2022/12/19 11:55:45;;;;;;;29.90;16.03;;;6.80;99.90;;;;;;6123709;23;20022;-80
2022/12/19 11:58:11;;;;;;;32.17;16.63;;;6.80;99.90;;;;;;6098790;23;20100;-81
2022/12/19 12:00:52;;;;;;;27.10;14.93;;;7.80;99.90;;;;;;6099833;23;20010;-83
2022/12/19 12:03:42;;;;;;;28.77;17.07;;;6.80;99.90;;;;;;6098189;23;20013;-81
2022/12/19 12:06:15;;;;;;;26.87;15.00;;;6.80;99.90;;;;;;6100493;23;20021;-82
2022/12/19 12:09:08;;;;;;;28.88;16.40;;;6.80;99.90;;;;;;6134029;23;20438;-85
2022/12/19 12:11:51;;;;;;;24.77;15.23;;;6.90;99.90;;;;;;6099586;23;20014;-82
2022/12/19 12:14:33;;;;;;;29.80;16.88;;;6.80;99.90;;;;;;6099130;23;20022;-82
2022/12/19 12:17:35;;;;;;;28.50;16.13;;;6.90;99.90;;;;;;6125715;23;20013;-79
2022/12/19 12:20:17;;;;;;;27.70;15.33;;;6.90;99.90;;;;;;6125918;23;20018;-81
2022/12/19 12:23:03;;;;;;;23.23;13.10;;;6.90;99.90;;;;;;6099662;23;20346;-82
2022/12/19 12:25:40;;;;;;;29.07;15.97;;;7.00;99.90;;;;;;6125165;23;20384;-81
2022/12/19 12:28:43;;;;;;;27.10;15.20;;;7.00;99.90;;;;;;6126128;23;20017;-81
2022/12/19 12:31:51;;;;;;;27.77;15.53;;;7.00;99.90;;;;;;6068533;23;20030;-80
2022/12/19 12:34:22;;;;;;;26.70;16.17;;;7.00;99.90;;;;;;6065333;23;20026;-81
2022/12/19 12:37:32;;;;;;;26.43;15.23;;;7.10;99.90;;;;;;6066469;23;20026;-81
2022/12/19 12:40:16;;;;;;;26.60;14.60;;;7.10;99.90;;;;;;6066250;23;20337;-81
2022/12/19 12:42:56;;;;;;;25.58;14.70;;;7.10;99.90;;;;;;6061844;23;20074;-82
2022/12/19 12:45:33;;;;;;;23.50;13.57;;;7.10;99.90;;;;;;6064577;23;20019;-81
2022/12/19 12:47:59;;;;;;;27.70;14.80;;;7.20;99.90;;;;;;6066634;23;20019;-81
2022/12/19 12:50:26;;;;;;;23.43;14.47;;;7.10;99.90;;;;;;6066654;23;20070;-82
2022/12/19 12:52:56;;;;;;;21.00;13.33;;;7.10;99.90;;;;;;6064491;23;20113;-81
2022/12/19 12:55:32;;;;;;;21.63;12.57;;;7.10;99.90;;;;;;6067195;23;20019;-81
2022/12/19 12:57:59;;;;;;;23.47;14.33;;;7.20;99.90;;;;;;6065494;23;20510;-81
2022/12/19 13:00:34;;;;;;;23.50;13.90;;;7.20;99.90;;;;;;6064456;23;20150;-81
2022/12/19 13:03:14;;;;;;;21.37;12.67;;;7.20;99.90;;;;;;6067540;23;20138;-81
2022/12/19 13:05:45;;;;;;;22.17;13.13;;;7.20;99.90;;;;;;6064266;23;20093;-81
2022/12/19 13:08:30;;;;;;;22.13;13.17;;;7.20;99.90;;;;;;6062895;23;20026;-81
2022/12/19 13:11:00;;;;;;;;;;;7.30;99.90;;;;;;6065127;23;20022;-81
2022/12/19 13:13:56;;;;;;;21.37;13.50;;;7.30;99.90;;;;;;6064299;23;20004;-80
2022/12/19 13:16:44;;;;;;;22.83;12.50;;;7.30;99.90;;;;;;6065625;23;20347;-80
2022/12/19 13:19:19;;;;;;;21.07;12.27;;;7.40;99.90;;;;;;6066463;23;20019;-80
2022/12/19 13:22:02;;;;;;;19.50;12.50;;;7.40;99.90;;;;;;6066468;23;20448;-80
2022/12/19 13:24:49;;;;;;;21.58;13.05;;;8.70;99.90;;;;;;6065524;23;20844;-80
2022/12/19 13:27:17;;;;;;;19.93;12.03;;;7.40;99.90;;;;;;6067385;23;20086;-79
2022/12/19 13:30:06;;;;;;;19.53;11.60;;;7.40;99.90;;;;;;6066295;23;20022;-79
2022/12/19 13:32:38;;;;;;;21.63;12.57;;;7.40;99.90;;;;;;6066443;23;20021;-79
2022/12/19 13:35:11;;;;;;;19.57;11.37;;;7.40;99.90;;;;;;6064861;23;20023;-79
2022/12/19 13:37:36;;;;;;;23.73;11.10;;;7.50;99.90;;;;;;6067199;23;20063;-80
2022/12/19 13:40:31;;;;;;;18.93;11.20;;;8.50;99.90;;;;;;6065475;23;20023;-80
2022/12/19 13:46:01;;;;;;;19.73;10.80;;;7.60;99.90;;;;;;6069246;23;20018;-80
2022/12/19 13:48:41;;;;;;;16.30;9.47;;;7.60;99.90;;;;;;6068227;23;20459;-79
2022/12/19 13:51:10;;;;;;;18.97;11.60;;;8.00;99.90;;;;;;6069562;23;20067;-80
2022/12/19 13:53:36;;;;;;;18.37;10.30;;;7.60;99.90;;;;;;6069247;23;20022;-79
2022/12/19 13:56:12;;;;;;;17.00;10.27;;;8.00;99.90;;;;;;6068556;23;20015;-80
2022/12/19 13:58:48;;;;;;;17.47;10.00;;;7.60;99.90;;;;;;6067452;23;20026;-79
2022/12/19 14:01:19;;;;;;;16.33;9.47;;;7.60;99.90;;;;;;6068925;23;20050;-79
2022/12/19 14:03:46;;;;;;;17.50;9.83;;;8.10;99.90;;;;;;6062839;23;20023;-79
2022/12/19 14:06:29;;;;;;;15.50;9.17;;;7.60;99.90;;;;;;6068576;23;20038;-79
2022/12/19 14:09:06;;;;;;;18.98;9.98;;;7.70;99.90;;;;;;6067602;23;20225;-79